Time;durP1;ratioP1;P1;durP2;ratioP2;P2;SDS_P1;SDS_P2;PMS_P1;PMS_P2;Temp;Humidity;BMP_temperature;BMP_pressure;BME280_temperature;BME280_humidity;BME280_pressure;Samples;Min_cycle;Max_cycle;Signal;HPM_P1;HPM_P2
2022/03/31 00:00:19;;;;;;;24.25;10.93;;;;;;;;;;5075328;28;20093;-72
2022/03/31 00:02:45;;;;;;;19.10;10.07;;;;;;;;;;5074893;28;20027;-70
2022/03/31 00:05:11;;;;;;;22.17;10.02;;;;;;;;;;5074972;28;20463;-71
2022/03/31 00:07:54;;;;;;;29.02;11.23;;;;;;;;;;5074754;28;20448;-72
2022/03/31 00:10:28;;;;;;;21.98;12.13;;;;;;;;;;5074776;28;20041;-71
2022/03/31 00:12:54;;;;;;;22.95;11.60;;;;;;;;;;5074719;28;20075;-74
2022/03/31 00:15:21;;;;;;;28.92;11.50;;;;;;;;;;5074723;28;20521;-71
2022/03/31 00:17:47;;;;;;;31.17;11.95;;;;;;;;;;5074608;28;20056;-74
2022/03/31 00:20:13;;;;;;;21.45;12.20;;;;;;;;;;5074455;28;20033;-72
2022/03/31 00:22:40;;;;;;;26.95;12.93;;;;;;;;;;5074442;28;20115;-68
2022/03/31 00:25:07;;;;;;;32.30;16.63;;;;;;;;;;5074717;28;20021;-69
2022/03/31 00:27:34;;;;;;;39.17;16.52;;;;;;;;;;5074564;28;20041;-73
2022/03/31 00:30:00;;;;;;;35.45;18.20;;;;;;;;;;5074418;28;20036;-72
2022/03/31 00:32:26;;;;;;;38.92;17.35;;;;;;;;;;5074797;28;20494;-72
2022/03/31 00:34:52;;;;;;;35.03;16.65;;;;;;;;;;5074329;28;20108;-73
2022/03/31 00:37:18;;;;;;;35.90;17.05;;;;;;;;;;5074557;28;20027;-73
2022/03/31 00:39:44;;;;;;;26.75;14.10;;;;;;;;;;5073998;28;20033;-73
2022/03/31 00:42:11;;;;;;;26.17;11.63;;;;;;;;;;5074117;28;20483;-73
2022/03/31 00:44:37;;;;;;;24.45;10.60;;;;;;;;;;5074109;28;20041;-72
2022/03/31 00:47:03;;;;;;;27.42;11.43;;;;;;;;;;5073992;28;20024;-73
2022/03/31 00:49:32;;;;;;;19.30;9.15;;;;;;;;;;5073883;28;20032;-69
2022/03/31 00:51:58;;;;;;;20.70;10.55;;;;;;;;;;5073502;28;20060;-73
2022/03/31 00:54:28;;;;;;;30.02;10.93;;;;;;;;;;5073886;28;20021;-69
2022/03/31 00:56:55;;;;;;;21.77;10.68;;;;;;;;;;5074054;28;20394;-73
2022/03/31 00:59:21;;;;;;;23.50;10.27;;;;;;;;;;5073809;28;20434;-72
2022/03/31 01:01:48;;;;;;;27.10;11.00;;;;;;;;;;5073752;28;20149;-72
2022/03/31 01:04:14;;;;;;;26.88;11.75;;;;;;;;;;5073618;28;20368;-73
2022/03/31 01:06:44;;;;;;;25.30;12.23;;;;;;;;;;5073591;28;20564;-71
2022/03/31 01:09:12;;;;;;;33.40;15.77;;;;;;;;;;5073509;28;20036;-73
2022/03/31 01:11:39;;;;;;;25.75;12.55;;;;;;;;;;5073874;28;20107;-71
2022/03/31 01:14:06;;;;;;;28.83;12.88;;;;;;;;;;5073534;28;20020;-74
2022/03/31 01:16:32;;;;;;;27.65;11.70;;;;;;;;;;5072067;28;20060;-73
2022/03/31 01:19:03;;;;;;;26.33;11.50;;;;;;;;;;5073352;28;20028;-72
2022/03/31 01:21:29;;;;;;;25.55;11.60;;;;;;;;;;5073609;28;20432;-72
2022/03/31 01:23:55;;;;;;;28.27;10.63;;;;;;;;;;5073262;28;20029;-73
2022/03/31 01:26:22;;;;;;;22.88;11.68;;;;;;;;;;5073282;28;20052;-73
2022/03/31 01:28:48;;;;;;;30.95;11.40;;;;;;;;;;5073678;28;20078;-73
2022/03/31 01:31:14;;;;;;;30.42;12.80;;;;;;;;;;5073224;28;20046;-73
2022/03/31 01:33:41;;;;;;;27.38;13.15;;;;;;;;;;5073477;28;20140;-72
2022/03/31 01:36:08;;;;;;;24.00;13.02;;;;;;;;;;5073517;28;20425;-72
2022/03/31 01:38:34;;;;;;;27.27;13.85;;;;;;;;;;5073172;28;20104;-73
2022/03/31 01:41:01;;;;;;;27.25;12.85;;;;;;;;;;5073176;28;20020;-72
2022/03/31 01:43:27;;;;;;;25.10;13.68;;;;;;;;;;5073112;28;20025;-70
2022/03/31 01:45:54;;;;;;;30.00;11.88;;;;;;;;;;5071840;28;20417;-73
2022/03/31 01:48:21;;;;;;;23.73;12.90;;;;;;;;;;5072989;28;20016;-72
2022/03/31 01:50:47;;;;;;;20.88;11.23;;;;;;;;;;5072952;28;20037;-70
2022/03/31 01:53:14;;;;;;;21.25;11.30;;;;;;;;;;5072974;28;20390;-72
2022/03/31 01:55:40;;;;;;;19.77;11.00;;;;;;;;;;5072933;28;20052;-72
2022/03/31 01:58:07;;;;;;;21.60;11.18;;;;;;;;;;5072945;28;20185;-73
2022/03/31 02:00:35;;;;;;;23.13;10.35;;;;;;;;;;5072809;28;20028;-72
2022/03/31 02:03:01;;;;;;;24.20;10.95;;;;;;;;;;5072904;28;20086;-72
2022/03/31 02:05:28;;;;;;;26.33;13.23;;;;;;;;;;5072330;28;20393;-72
2022/03/31 02:07:55;;;;;;;27.15;14.63;;;;;;;;;;5073151;28;20029;-74
2022/03/31 02:10:21;;;;;;;27.70;12.30;;;;;;;;;;5072645;28;20062;-72
2022/03/31 02:12:49;;;;;;;20.67;12.02;;;;;;;;;;5071849;28;20447;-72
2022/03/31 02:15:15;;;;;;;25.67;11.75;;;;;;;;;;5072734;28;20024;-73
2022/03/31 02:17:42;;;;;;;21.38;11.60;;;;;;;;;;5072792;28;20020;-73
2022/03/31 02:20:08;;;;;;;22.42;11.50;;;;;;;;;;5072747;28;20039;-73
2022/03/31 02:22:34;;;;;;;23.63;12.25;;;;;;;;;;5072718;28;20021;-72
2022/03/31 02:25:01;;;;;;;21.35;11.05;;;;;;;;;;5072780;28;20391;-73
2022/03/31 02:27:26;;;;;;;18.98;11.70;;;435.20;2355.20;;;;;;5072686;28;20049;-73
2022/03/31 02:29:52;;;;;;;24.63;11.77;;;435.20;2355.20;;;;;;5072653;28;20040;-72
2022/03/31 02:32:18;;;;;;;26.02;13.35;;;410.50;2355.20;;;;;;5072620;28;20066;-73
2022/03/31 02:34:43;;;;;;;29.05;15.82;;;410.40;2355.20;;;;;;5072514;28;20407;-73
2022/03/31 02:37:10;;;;;;;22.20;14.63;;;;;;;;;;5072611;28;20032;-73
2022/03/31 02:39:36;;;;;;;33.67;18.95;;;;;;;;;;5072351;28;20032;-72
2022/03/31 02:42:02;;;;;;;34.70;18.38;;;;;;;;;;5072567;28;20048;-73
2022/03/31 02:44:28;;;;;;;31.80;17.85;;;;;;;;;;5072508;28;20032;-73
2022/03/31 02:46:54;;;;;;;38.17;21.25;;;;;;;;;;5072477;28;20584;-74
2022/03/31 02:49:20;;;;;;;37.75;18.58;;;;;;;;;;5072256;28;20035;-73
2022/03/31 02:51:46;;;;;;;28.50;16.27;;;;;;;;;;5072484;28;20021;-73
2022/03/31 02:56:57;;;;;;;31.70;17.40;;;;;;;;;;5072753;28;20056;-76
2022/03/31 02:59:24;;;;;;;37.28;17.77;;;;;;;;;;5072918;28;20024;-73
2022/03/31 03:01:50;;;;;;;31.63;15.60;;;;;;;;;;5072686;28;20025;-73
2022/03/31 03:04:16;;;;;;;30.42;17.70;;;;;;;;;;5072387;28;20012;-74
2022/03/31 03:06:43;;;;;;;28.85;15.27;;;;;;;;;;5072388;28;20036;-73
2022/03/31 03:09:09;;;;;;;24.38;15.13;;;;;;;;;;5072103;28;20048;-73
2022/03/31 03:11:35;;;;;;;28.70;13.70;;;;;;;;;;5072157;28;20033;-72
2022/03/31 03:14:02;;;;;;;40.78;20.92;;;;;;;;;;5072218;28;20016;-72
2022/03/31 03:16:28;;;;;;;37.72;19.52;;;;;;;;;;5074487;28;20505;-70
2022/03/31 03:18:54;;;;;;;32.25;19.13;;;;;;;;;;5075605;28;20102;-72
2022/03/31 03:21:20;;;;;;;37.42;24.35;;;;;;;;;;5075732;28;20031;-73
2022/03/31 03:23:48;;;;;;;42.72;25.63;;;;;;;;;;5075702;28;20155;-72
2022/03/31 03:26:14;;;;;;;42.35;25.73;;;;;;;;;;5075607;28;20049;-72
2022/03/31 03:28:41;;;;;;;33.03;19.85;;;;;;;;;;5075865;28;20028;-72
2022/03/31 03:31:07;;;;;;;34.88;21.00;;;;;;;;;;5075559;28;20029;-72
2022/03/31 03:33:34;;;;;;;33.60;19.70;;;;;;;;;;5075311;28;20024;-72
2022/03/31 03:36:01;;;;;;;31.42;18.42;;;;;;;;;;5075418;28;20047;-72
2022/03/31 03:38:27;;;;;;;32.78;17.80;;;;;;;;;;5075461;28;20506;-72
2022/03/31 03:40:54;;;;;;;38.75;17.67;;;;;;;;;;5075275;28;20048;-72
2022/03/31 03:43:20;;;;;;;32.25;18.77;;;;;;;;;;5075483;28;20036;-72
2022/03/31 03:45:46;;;;;;;34.95;19.75;;;;;;;;;;5075245;28;20479;-73
2022/03/31 03:48:13;;;;;;;29.08;18.75;;;;;;;;;;5075572;28;20409;-73
2022/03/31 03:50:39;;;;;;;32.20;18.48;;;;;;;;;;5075032;28;20029;-73
2022/03/31 03:53:08;;;;;;;31.88;18.83;;;;;;;;;;5075234;28;20013;-72
2022/03/31 03:55:36;;;;;;;27.60;17.90;;;;;;;;;;5075072;28;20387;-72
2022/03/31 03:58:02;;;;;;;27.63;15.50;;;;;;;;;;5075476;28;20028;-72
2022/03/31 04:00:29;;;;;;;30.25;17.50;;;;;;;;;;5074962;28;20027;-72
2022/03/31 04:02:55;;;;;;;28.40;17.52;;;;;;;;;;5074763;28;20024;-73
2022/03/31 04:05:22;;;;;;;30.92;18.23;;;;;;;;;;5074998;28;20052;-73
2022/03/31 04:07:48;;;;;;;35.30;20.30;;;;;;;;;;5074911;28;20028;-73
2022/03/31 04:10:14;;;;;;;32.40;19.30;;;;;;;;;;5074797;28;20043;-73
2022/03/31 04:12:40;;;;;;;27.67;16.48;;;;;;;;;;5073406;28;20024;-72
2022/03/31 04:15:07;;;;;;;33.80;18.42;;;;;;;;;;5074713;28;20048;-73
2022/03/31 04:17:34;;;;;;;32.63;20.02;;;;;;;;;;5074503;28;20455;-73
2022/03/31 04:20:00;;;;;;;45.33;21.38;;;;;;;;;;5074529;28;20055;-73
2022/03/31 04:22:26;;;;;;;35.28;19.88;;;;;;;;;;5074573;28;20523;-73
2022/03/31 04:24:52;;;;;;;35.58;20.02;;;;;;;;;;5074552;28;20489;-73
2022/03/31 04:27:18;;;;;;;35.30;18.95;;;;;;;;;;5073979;28;20109;-73
2022/03/31 04:29:44;;;;;;;40.00;20.02;;;;;;;;;;5074301;28;20036;-73
2022/03/31 04:32:11;;;;;;;36.97;20.63;;;;;;;;;;5074204;28;20020;-73
2022/03/31 04:34:37;;;;;;;33.67;24.27;;;;;;;;;;5074389;28;20549;-73
2022/03/31 04:37:03;;;;;;;37.70;24.55;;;;;;;;;;5074237;28;20443;-73
2022/03/31 04:39:29;;;;;;;43.92;26.35;;;409.70;2355.20;;;;;;5074139;28;20028;-73
2022/03/31 04:41:54;;;;;;;36.13;24.27;;;409.60;2355.20;;;;;;5074034;28;20387;-73
2022/03/31 04:44:20;;;;;;;32.00;22.00;;;409.90;2355.20;;;;;;5074099;28;20026;-70
2022/03/31 04:46:47;;;;;;;32.22;22.33;;;409.90;2355.20;;;;;;5074131;28;20024;-73
2022/03/31 04:49:13;;;;;;;35.08;24.80;;;409.90;2355.20;;;;;;5073806;28;20024;-73
2022/03/31 04:51:39;;;;;;;37.17;24.13;;;409.90;2355.20;;;;;;5073958;28;20024;-72
2022/03/31 04:54:05;;;;;;;32.92;22.58;;;409.70;2355.20;;;;;;5074041;28;20021;-73
2022/03/31 04:56:31;;;;;;;36.17;25.02;;;409.60;2355.20;;;;;;5073913;28;20429;-74
2022/03/31 04:58:57;;;;;;;39.17;25.45;;;384.80;2329.60;;;;;;5073748;28;20086;-73
2022/03/31 05:01:23;;;;;;;49.80;35.75;;;384.70;2329.60;;;;;;5074087;28;20025;-73
2022/03/31 05:03:50;;;;;;;48.65;34.90;;;384.60;2329.60;;;;;;5073594;28;20025;-72
2022/03/31 05:06:16;;;;;;;46.97;32.97;;;384.90;2329.60;;;;;;5073620;28;20021;-71
2022/03/31 05:08:42;;;;;;;48.97;32.28;;;384.80;2329.60;;;;;;5073523;28;20032;-73
2022/03/31 05:11:08;;;;;;;49.70;33.58;;;409.70;2355.20;;;;;;5073662;28;20498;-74
2022/03/31 05:13:34;;;;;;;53.50;31.95;;;409.70;2355.20;;;;;;5073542;28;20031;-72
2022/03/31 05:16:00;;;;;;;41.25;29.58;;;409.70;2355.20;;;;;;5073407;28;20024;-74
2022/03/31 05:18:26;;;;;;;50.22;31.85;;;409.80;2355.20;;;;;;5073177;28;20025;-73
2022/03/31 05:20:52;;;;;;;59.80;41.65;;;384.80;2329.60;;;;;;5073334;28;20043;-73
2022/03/31 05:23:18;;;;;;;65.78;47.30;;;;;;;;;;5073351;28;20536;-73
2022/03/31 05:25:44;;;;;;;78.00;52.60;;;384.90;2329.60;;;;;;5073236;28;20074;-73
2022/03/31 05:28:11;;;;;;;72.88;53.22;;;384.90;2329.60;;;;;;5071217;28;20032;-70
2022/03/31 05:30:37;;;;;;;67.35;47.42;;;409.60;2355.20;;;;;;5073219;28;20089;-73
2022/03/31 05:33:04;;;;;;;71.93;49.33;;;409.60;2355.20;;;;;;5073089;28;20103;-73
2022/03/31 05:35:30;;;;;;;71.93;52.78;;;409.60;2355.20;;;;;;5073091;28;20548;-73
2022/03/31 05:37:56;;;;;;;80.65;55.35;;;384.70;2329.60;;;;;;5073131;28;20037;-73
2022/03/31 05:40:22;;;;;;;113.97;77.47;;;;;;;;;;5072863;28;20402;-73
2022/03/31 05:42:48;;;;;;;148.55;105.95;;;;;;;;;;5072853;28;20025;-72
2022/03/31 05:45:14;;;;;;;128.13;87.40;;;384.80;2329.60;;;;;;5072903;28;20020;-73
2022/03/31 05:47:43;;;;;;;146.63;99.28;;;384.60;2329.60;;;;;;5072943;28;20028;-73
2022/03/31 05:50:09;;;;;;;127.05;88.70;;;384.70;2329.60;;;;;;5072774;28;20033;-74
2022/03/31 05:52:39;;;;;;;113.80;81.85;;;;;;;;;;5072854;28;20455;-73
2022/03/31 05:55:10;;;;;;;113.00;81.47;;;384.90;2329.60;;;;;;5072758;28;20029;-74
2022/03/31 05:57:39;;;;;;;124.88;83.00;;;;;;;;;;5073220;28;20028;-75
2022/03/31 06:00:08;;;;;;;108.57;77.85;;;384.60;2329.60;;;;;;5072801;28;20502;-72
2022/03/31 06:02:34;;;;;;;105.05;71.38;;;;;;;;;;5072685;28;20020;-73
2022/03/31 06:05:00;;;;;;;92.82;64.30;;;;;;;;;;5072878;28;20028;-73
2022/03/31 06:07:26;;;;;;;76.78;54.17;;;384.70;2329.60;;;;;;5072977;28;20119;-73
2022/03/31 06:09:52;;;;;;;73.07;50.42;;;;;;;;;;5072504;28;20128;-73
2022/03/31 06:12:18;;;;;;;72.88;51.15;;;;;;;;;;5072954;28;20532;-73
2022/03/31 06:14:44;;;;;;;72.00;49.53;;;;;;;;;;5072622;28;20021;-73
2022/03/31 06:17:10;;;;;;;67.82;47.78;;;;;;;;;;5072462;28;20020;-73
2022/03/31 06:19:37;;;;;;;103.75;67.32;;;;;;;;;;5072690;28;20021;-74
2022/03/31 06:22:03;;;;;;;144.05;97.43;;;;;;;;;;5072671;28;20081;-74
2022/03/31 06:24:29;;;;;;;143.98;101.90;;;;;;;;;;5072600;28;20402;-73
2022/03/31 06:26:57;;;;;;;134.82;93.28;;;409.70;2355.20;;;;;;5072377;28;20466;-73
2022/03/31 06:29:25;;;;;;;134.95;91.05;;;409.60;2355.20;;;;;;5072509;28;20024;-73
2022/03/31 06:31:53;;;;;;;144.38;98.53;;;;;;;;;;5072583;28;20387;-73
2022/03/31 06:34:19;;;;;;;137.50;96.95;;;;;;;;;;5072535;28;20028;-73
2022/03/31 06:36:46;;;;;;;149.40;102.72;;;;;;;;;;5071112;28;20036;-73
2022/03/31 06:39:13;;;;;;;152.77;111.20;;;;;;;;;;5072373;28;20398;-74
2022/03/31 06:41:39;;;;;;;128.60;96.63;;;;;;;;;;5072362;28;20026;-74
2022/03/31 06:44:07;;;;;;;118.05;85.13;;;;;;;;;;5072410;28;20048;-73
2022/03/31 06:46:34;;;;;;;121.20;81.20;;;;;;;;;;5072774;28;20016;-74
2022/03/31 06:49:01;;;;;;;121.75;86.43;;;;;;;;;;5072447;28;20020;-73
2022/03/31 06:51:27;;;;;;;110.43;76.90;;;;;;;;;;5074556;28;20119;-73
2022/03/31 06:53:54;;;;;;;124.20;88.90;;;409.90;2355.20;;;;;;5076221;28;20028;-73
2022/03/31 06:56:20;;;;;;;125.90;86.95;;;;;;;;;;5074196;28;20033;-73
2022/03/31 06:58:46;;;;;;;113.85;77.53;;;410.00;2355.20;;;;;;5076090;28;20028;-73
2022/03/31 07:01:12;;;;;;;109.18;80.53;;;410.00;2355.20;;;;;;5076010;28;20510;-73
2022/03/31 07:03:38;;;;;;;123.00;88.43;;;410.10;2355.20;;;;;;5075838;28;20024;-74
2022/03/31 07:06:06;;;;;;;110.38;82.95;;;;;;;;;;5075938;28;20025;-73
2022/03/31 07:08:34;;;;;;;103.70;71.82;;;;;;;;;;5076265;28;20032;-73
2022/03/31 07:11:01;;;;;;;104.20;75.70;;;;;;;;;;5074412;28;20044;-73
2022/03/31 07:13:27;;;;;;;98.40;69.40;;;;;;;;;;5075986;28;20031;-74
2022/03/31 07:15:53;;;;;;;107.50;73.32;;;410.50;2355.20;;;;;;5075863;28;20070;-75
2022/03/31 07:18:18;;;;;;;108.60;75.50;;;435.20;2355.20;;;;;;5076383;28;20378;-72
2022/03/31 07:20:44;;;;;;;104.03;77.70;;;435.20;2355.20;;;;;;5075866;28;20063;-74
2022/03/31 07:23:10;;;;;;;94.18;64.68;;;435.30;2355.20;;;;;;5075661;28;20034;-73
2022/03/31 07:25:36;;;;;;;105.35;72.18;;;410.50;2355.20;;;;;;5075383;28;20398;-72
2022/03/31 07:28:02;;;;;;;101.95;74.68;;;410.50;2355.20;;;;;;5075639;28;20039;-73
2022/03/31 07:30:28;;;;;;;93.15;54.88;;;435.20;2355.20;;;;;;5075449;28;20398;-72
2022/03/31 07:32:56;;;;;;;82.82;53.13;;;435.20;2355.20;;;;;;5075389;28;20024;-73
2022/03/31 07:35:25;;;;;;;94.28;63.05;;;435.20;2355.20;;;;;;5075460;28;20103;-72
2022/03/31 07:37:52;;;;;;;88.78;58.45;;;;;;;;;;5075930;28;20024;-73
2022/03/31 07:40:18;;;;;;;93.68;61.28;;;;;;;;;;5075280;28;20432;-74
2022/03/31 07:42:44;;;;;;;123.25;76.68;;;;;;;;;;5075330;28;20024;-73
2022/03/31 07:45:11;;;;;;;93.30;61.58;;;;;;;;;;5075132;28;20023;-73
2022/03/31 07:47:38;;;;;;;93.80;63.50;;;435.30;2355.20;;;;;;5075329;28;20395;-73
2022/03/31 07:50:05;;;;;;;78.85;47.55;;;;;;;;;;5075288;28;20178;-74
2022/03/31 07:52:32;;;;;;;67.43;41.55;;;;;;;;;;5073783;28;20540;-75
2022/03/31 07:54:58;;;;;;;58.83;38.75;;;;;;;;;;5075029;28;20032;-73
2022/03/31 07:57:24;;;;;;;57.38;37.92;;;;;;;;;;5075008;28;20071;-75
2022/03/31 07:59:49;;;;;;;63.20;36.97;;;435.60;2355.20;;;;;;5075078;28;20386;-73
2022/03/31 08:02:16;;;;;;;63.25;35.00;;;435.80;2355.20;;;;;;5073563;28;20051;-73
2022/03/31 08:04:42;;;;;;;54.92;33.22;;;435.70;2355.20;;;;;;5075035;28;20032;-74
2022/03/31 08:07:08;;;;;;;66.20;39.17;;;;;;;;;;5074901;28;20021;-73
2022/03/31 08:09:35;;;;;;;56.33;34.47;;;;;;;;;;5074749;28;20029;-73
2022/03/31 08:12:01;;;;;;;64.40;37.30;;;;;;;;;;5074550;28;20097;-73
2022/03/31 08:14:27;;;;;;;72.72;42.22;;;;;;;;;;5074812;28;20395;-73
2022/03/31 08:16:54;;;;;;;74.68;41.72;;;;;;;;;;5074540;28;20392;-72
2022/03/31 08:19:20;;;;;;;95.15;47.63;;;;;;;;;;5073224;28;20033;-73
2022/03/31 08:21:47;;;;;;;85.15;42.47;;;;;;;;;;5073291;28;20032;-73
2022/03/31 08:24:14;;;;;;;68.03;39.58;;;;;;;;;;5074802;28;20012;-73
2022/03/31 08:26:41;;;;;;;70.65;38.88;;;;;;;;;;5074217;28;20066;-73
2022/03/31 08:29:08;;;;;;;63.80;37.72;;;;;;;;;;5074394;28;20082;-73
2022/03/31 08:31:34;;;;;;;69.45;36.60;;;;;;;;;;5072953;28;20051;-73
2022/03/31 08:34:01;;;;;;;66.93;36.65;;;435.60;2355.20;;;;;;5074206;28;20029;-74
2022/03/31 08:36:30;;;;;;;60.90;37.05;;;435.80;2355.20;;;;;;5074182;28;20090;-73
2022/03/31 08:38:56;;;;;;;66.25;37.33;;;;;;;;;;5073028;28;20082;-73
2022/03/31 08:41:24;;;;;;;70.35;42.65;;;;;;;;;;5074265;28;20100;-72
2022/03/31 08:43:50;;;;;;;63.53;37.85;;;;;;;;;;5073950;28;20070;-70
2022/03/31 08:46:16;;;;;;;77.95;38.75;;;;;;;;;;5073729;28;20028;-71
2022/03/31 08:48:42;;;;;;;79.53;43.58;;;;;;;;;;5073898;28;20123;-73
2022/03/31 08:51:09;;;;;;;76.55;44.20;;;;;;;;;;5073729;28;20032;-73
2022/03/31 08:53:35;;;;;;;46.45;21.38;;;;;;;;;;5073870;28;20031;-73
2022/03/31 08:56:02;;;;;;;54.67;26.83;;;;;;;;;;5073993;28;20366;-73
2022/03/31 08:58:28;;;;;;;65.93;29.98;;;;;;;;;;5073822;28;20082;-74
2022/03/31 09:00:54;;;;;;;70.25;33.58;;;;;;;;;;5073657;28;20027;-72
2022/03/31 09:03:20;;;;;;;71.15;31.80;;;;;;;;;;5073347;28;20548;-73
2022/03/31 09:05:52;;;;;;;52.28;23.80;;;;;;;;;;5073589;28;20383;-73
2022/03/31 09:08:19;;;;;;;61.60;26.48;;;;;;;;;;5073979;28;20029;-73
2022/03/31 09:10:48;;;;;;;48.53;26.65;;;461.10;2304.00;;;;;;5073512;28;20391;-73
2022/03/31 09:13:24;;;;;;;63.08;36.95;;;461.10;2304.00;;;;;;5073563;28;20021;-72
2022/03/31 09:15:56;;;;;;;79.88;49.60;;;;;;;;;;5073233;28;20504;-72
2022/03/31 09:18:23;;;;;;;88.05;55.17;;;;;;;;;;5073414;28;20154;-72
2022/03/31 09:20:50;;;;;;;84.75;38.05;;;;;;;;;;5073474;28;20036;-72
2022/03/31 09:23:22;;;;;;;60.58;32.47;;;;;;;;;;5073568;28;20066;-72
2022/03/31 09:25:52;;;;;;;71.72;39.00;;;;;;;;;;5071527;28;20406;-72
2022/03/31 09:28:25;;;;;;;78.72;51.00;;;;;;;;;;5073091;28;20029;-73
2022/03/31 09:30:55;;;;;;;69.70;36.20;;;;;;;;;;5073019;28;20046;-68
2022/03/31 09:33:34;;;;;;;63.15;30.88;;;;;;;;;;5073317;28;20036;-73
2022/03/31 09:36:02;;;;;;;39.92;24.10;;;;;;;;;;5072894;28;20028;-72
2022/03/31 09:38:28;;;;;;;59.55;21.55;;;486.60;2176.00;;;;;;5073045;28;20016;-73
2022/03/31 09:40:54;;;;;;;55.30;17.80;;;486.70;2176.00;;;;;;5072820;28;20029;-73
2022/03/31 09:43:21;;;;;;;52.75;19.20;;;;;;;;;;5072968;28;20031;-72
2022/03/31 09:45:48;;;;;;;61.72;28.30;;;;;;;;;;5073247;28;20056;-72
2022/03/31 09:48:21;;;;;;;51.08;25.02;;;;;;;;;;5073144;28;20020;-73
2022/03/31 09:50:48;;;;;;;43.28;19.02;;;;;;;;;;5072830;28;20036;-73
2022/03/31 09:53:14;;;;;;;55.63;24.65;;;;;;;;;;5072922;28;20085;-73
2022/03/31 09:55:42;;;;;;;35.97;17.42;;;487.30;2048.00;;;;;;5072564;28;20474;-73
2022/03/31 09:58:09;;;;;;;49.15;16.58;;;;;;;;;;5072626;28;20035;-73
2022/03/31 10:00:35;;;;;;;23.63;11.55;;;512.00;2022.40;;;;;;5072712;28;20039;-73
2022/03/31 10:03:01;;;;;;;37.45;15.20;;;487.10;2022.40;;;;;;5072754;28;20028;-73
2022/03/31 10:05:27;;;;;;;30.15;14.73;;;487.10;2022.40;;;;;;5072709;28;20093;-72
2022/03/31 10:07:54;;;;;;;28.30;13.35;;;487.30;1996.80;;;;;;5073042;28;20541;-73
2022/03/31 10:10:20;;;;;;;21.17;9.90;;;;;;;;;;5072502;28;20036;-73
2022/03/31 10:12:54;;;;;;;23.08;12.55;;;;;;;;;;5072514;28;20024;-73
2022/03/31 10:15:30;;;;;;;25.23;11.63;;;;;;;;;;5072651;28;20028;-72
2022/03/31 10:17:59;;;;;;;11.40;5.75;;;;;;;;;;5072606;28;20108;-72
2022/03/31 10:20:25;;;;;;;9.25;6.13;;;;;;;;;;5072783;28;20029;-72
2022/03/31 10:25:41;;;;;;;13.63;6.35;;;;;;;;;;5073887;28;20129;-73
2022/03/31 10:28:17;;;;;;;12.23;6.32;;;;;;;;;;5075264;28;20123;-73
2022/03/31 10:30:57;;;;;;;10.77;4.38;;;;;;;;;;5076728;28;20036;-73
2022/03/31 10:33:44;;;;;;;9.52;4.82;;;;;;;;;;5076443;28;20081;-72
2022/03/31 10:36:12;;;;;;;18.92;4.60;;;;;;;;;;5076328;28;20020;-72
2022/03/31 10:38:59;;;;;;;10.07;5.07;;;;;;;;;;5076630;28;20097;-73
2022/03/31 10:41:32;;;;;;;15.95;5.03;;;;;;;;;;5076323;28;20071;-73
2022/03/31 10:43:59;;;;;;;9.68;6.05;;;;;;;;;;5076268;28;20028;-72
2022/03/31 10:46:32;;;;;;;12.02;6.55;;;;;;;;;;5076288;28;20055;-72
2022/03/31 10:48:58;;;;;;;10.73;5.97;;;;;;;;;;5074849;28;20094;-73
2022/03/31 10:51:41;;;;;;;10.43;6.18;;;;;;;;;;5076024;28;20076;-73
2022/03/31 10:54:09;;;;;;;6.40;4.07;;;;;;;;;;5076142;28;20161;-73
2022/03/31 10:56:35;;;;;;;8.77;4.40;;;537.60;1510.40;;;;;;5075852;28;20031;-73
2022/03/31 10:59:06;;;;;;;18.50;8.27;;;537.60;1510.40;;;;;;5076088;28;20024;-73
2022/03/31 11:01:37;;;;;;;5.68;4.00;;;537.80;1484.80;;;;;;5076028;28;20017;-73
2022/03/31 11:04:07;;;;;;;36.70;23.50;;;537.90;1484.80;;;;;;5076044;28;20032;-73
2022/03/31 11:06:33;;;;;;;9.40;4.00;;;538.00;1612.80;;;;;;5076001;28;20060;-72
2022/03/31 11:08:59;;;;;;;19.92;13.82;;;538.00;1459.20;;;;;;5075853;28;20142;-72
2022/03/31 11:11:28;;;;;;;7.72;4.60;;;538.10;1459.20;;;;;;5075678;28;20046;-72
2022/03/31 11:13:58;;;;;;;10.90;6.30;;;538.10;1459.20;;;;;;5075900;28;20493;-73
2022/03/31 11:16:44;;;;;;;5.90;3.38;;;538.10;1459.20;;;;;;5074489;28;20387;-73
2022/03/31 11:19:11;;;;;;;11.70;7.63;;;538.10;1484.80;;;;;;5075647;28;20070;-73
2022/03/31 11:21:38;;;;;;;7.25;3.15;;;;;;;;;;5075744;28;20025;-72
2022/03/31 11:24:05;;;;;;;6.78;4.80;;;;;;;;;;5076099;28;20040;-72
2022/03/31 11:26:32;;;;;;;7.70;4.30;;;;;;;;;;5075485;28;20045;-73
2022/03/31 11:29:01;;;;;;;6.13;3.70;;;538.50;1408.00;;;;;;5075584;28;20028;-72
2022/03/31 11:31:27;;;;;;;11.05;6.40;;;538.50;1408.00;;;;;;5075617;28;20089;-73
2022/03/31 11:33:55;;;;;;;9.05;4.82;;;;;;;;;;5075346;28;20024;-73
2022/03/31 11:36:21;;;;;;;10.13;6.72;;;;;;;;;;5075668;28;20410;-73
2022/03/31 11:38:57;;;;;;;12.35;5.55;;;;;;;;;;5075166;28;20538;-72
2022/03/31 11:41:23;;;;;;;6.93;4.18;;;;;;;;;;5075279;28;20070;-73
2022/03/31 11:43:50;;;;;;;5.60;4.35;;;;;;;;;;5075256;28;20479;-72
2022/03/31 11:46:16;;;;;;;10.98;6.32;;;;;;;;;;5075261;28;20031;-72
2022/03/31 11:48:45;;;;;;;12.43;7.97;;;;;;;;;;5073771;28;20036;-73
2022/03/31 11:51:11;;;;;;;10.23;5.93;;;;;;;;;;5074940;28;20063;-73
2022/03/31 11:53:41;;;;;;;5.35;3.28;;;;;;;;;;5074979;28;20024;-73
2022/03/31 11:56:09;;;;;;;7.13;4.22;;;;;;;;;;5075140;28;20029;-72
2022/03/31 11:58:43;;;;;;;10.68;6.32;;;;;;;;;;5074815;28;20024;-73
2022/03/31 12:01:09;;;;;;;11.15;6.63;;;;;;;;;;5074942;28;20020;-73
2022/03/31 12:03:36;;;;;;;9.73;6.18;;;;;;;;;;5075002;28;20025;-73
2022/03/31 12:06:03;;;;;;;9.95;6.20;;;;;;;;;;5074500;28;20067;-73
2022/03/31 12:08:29;;;;;;;3.70;2.92;;;;;;;;;;5074823;28;20036;-72
2022/03/31 12:10:56;;;;;;;7.60;4.43;;;563.80;1382.40;;;;;;5074677;28;20173;-72
2022/03/31 12:13:24;;;;;;;8.30;5.25;;;563.90;1356.80;;;;;;5074632;28;20029;-72
2022/03/31 12:15:50;;;;;;;5.53;4.18;;;;;;;;;;5074527;28;20021;-72
2022/03/31 12:18:18;;;;;;;8.23;4.90;;;564.10;1356.80;;;;;;5074449;28;20025;-73
2022/03/31 12:20:49;;;;;;;47.42;20.73;;;564.00;1331.20;;;;;;5074436;28;20383;-72
2022/03/31 12:23:23;;;;;;;11.38;5.88;;;588.80;1331.20;;;;;;5073127;28;20059;-72
2022/03/31 12:25:49;;;;;;;7.55;2.95;;;588.90;1331.20;;;;;;5074213;28;20060;-72
2022/03/31 12:28:20;;;;;;;21.50;4.03;;;588.80;1331.20;;;;;;5074299;28;20028;-72
2022/03/31 12:30:50;;;;;;;15.93;6.13;;;564.10;1305.60;;;;;;5074271;28;20479;-72
2022/03/31 12:33:23;;;;;;;10.80;4.20;;;588.90;1305.60;;;;;;5074681;28;20024;-71
2022/03/31 12:36:03;;;;;;;12.52;6.45;;;588.90;1305.60;;;;;;5074283;28;20025;-71
2022/03/31 12:38:37;;;;;;;12.93;5.53;;;588.90;1280.00;;;;;;5074426;28;20058;-72
2022/03/31 12:41:25;;;;;;;7.03;3.60;;;588.90;1280.00;;;;;;5074425;28;20025;-73
2022/03/31 12:44:06;;;;;;;3.90;2.20;;;589.00;1305.60;;;;;;5072594;28;20027;-73
2022/03/31 12:46:51;;;;;;;12.77;7.05;;;589.10;1280.00;;;;;;5074004;28;20483;-72
2022/03/31 12:49:18;;;;;;;6.45;2.55;;;;;;;;;;5073365;28;20064;-71
2022/03/31 12:51:52;;;;;;;12.88;6.53;;;;;;;;;;5073794;28;20036;-73
2022/03/31 12:54:21;;;;;;;6.15;2.72;;;;;;;;;;5073663;28;20025;-72
2022/03/31 12:56:48;;;;;;;6.20;3.28;;;;;;;;;;5073884;28;20048;-73
2022/03/31 12:59:21;;;;;;;9.60;5.53;;;;;;;;;;5073867;28;20029;-72
2022/03/31 13:01:59;;;;;;;11.88;7.45;;;;;;;;;;5073745;28;20035;-72
2022/03/31 13:04:26;;;;;;;7.55;3.80;;;;;;;;;;5073811;28;20482;-72
2022/03/31 13:06:52;;;;;;;81.20;11.65;;;;;;;;;;5073656;28;20081;-72
2022/03/31 13:09:19;;;;;;;50.42;6.25;;;;;;;;;;5073449;28;20029;-73
2022/03/31 13:11:45;;;;;;;18.17;2.90;;;;;;;;;;5073619;28;20035;-70
2022/03/31 13:14:12;;;;;;;6.72;3.70;;;;;;;;;;5073327;28;20024;-72
2022/03/31 13:16:38;;;;;;;22.40;5.68;;;;;;;;;;5073339;28;20025;-72
2022/03/31 13:19:04;;;;;;;317.92;62.75;;;;;;;;;;5072017;28;20021;-69
2022/03/31 13:21:32;;;;;;;9.05;4.70;;;589.20;1228.80;;;;;;5073061;28;20147;-72
2022/03/31 13:23:58;;;;;;;7.15;3.30;;;589.00;1228.80;;;;;;5073250;28;20538;-72
2022/03/31 13:26:24;;;;;;;8.10;3.75;;;589.10;1254.40;;;;;;5073033;28;20076;-70
2022/03/31 13:28:50;;;;;;;4.88;3.70;;;589.00;1254.40;;;;;;5073046;28;20067;-72
2022/03/31 13:31:16;;;;;;;22.20;4.05;;;589.00;1254.40;;;;;;5073148;28;20578;-72
2022/03/31 13:33:42;;;;;;;5.82;2.30;;;589.00;1203.20;;;;;;5073086;28;20057;-71
2022/03/31 13:36:08;;;;;;;6.70;3.28;;;;;;;;;;5072730;28;20490;-72
2022/03/31 13:38:36;;;;;;;13.07;3.47;;;;;;;;;;5073085;28;20021;-72
2022/03/31 13:41:02;;;;;;;9.82;2.40;;;;;;;;;;5072899;28;20027;-73